Time;durP1;ratioP1;P1;durP2;ratioP2;P2;SDS_P1;SDS_P2;PMS_P1;PMS_P2;Temp;Humidity;BMP_temperature;BMP_pressure;BME280_temperature;BME280_humidity;BME280_pressure;Samples;Min_cycle;Max_cycle;Signal;HPM_P1;HPM_P2
2023/06/03 00:00:05;;;;;;;1.95;1.05;;;;;;;22.32;36.24;101135.69;4554431;28;20040;-61
2023/06/03 00:02:15;;;;;;;1.42;1.00;;;;;;;22.30;36.14;101132.34;4555942;28;20040;-61
2023/06/03 00:04:29;;;;;;;1.65;1.20;;;;;;;22.29;35.97;101128.66;4554485;28;20494;-61
2023/06/03 00:06:39;;;;;;;1.35;1.10;;;;;;;22.29;35.67;101139.31;4536658;28;20052;-60
2023/06/03 00:08:50;;;;;;;1.27;1.10;;;;;;;22.26;35.65;101125.66;4555425;28;20037;-61
2023/06/03 00:11:00;;;;;;;1.98;1.00;;;;;;;22.28;35.50;101140.53;4553890;28;20222;-61
2023/06/03 00:13:11;;;;;;;1.55;1.10;;;;;;;22.26;35.47;101131.41;4556212;28;20111;-61
2023/06/03 00:15:21;;;;;;;1.00;0.90;;;;;;;22.30;35.49;101138.09;4536957;28;20044;-61
2023/06/03 00:17:33;;;;;;;1.95;1.10;;;;;;;22.27;35.18;101130.19;4555229;28;20412;-61
2023/06/03 00:19:43;;;;;;;1.15;0.98;;;;;;;22.28;35.09;101135.59;4538027;28;20040;-61
2023/06/03 00:21:54;;;;;;;1.05;0.98;;;;;;;22.19;35.12;101127.13;4555102;28;20032;-60
2023/06/03 00:24:04;;;;;;;1.10;1.00;;;;;;;22.27;35.45;101138.81;4555030;28;20563;-60
2023/06/03 00:26:15;;;;;;;1.52;0.90;;;;;;;22.26;34.91;101138.00;4553879;28;20275;-61
2023/06/03 00:28:28;;;;;;;1.23;0.90;;;;;;;22.27;34.76;101141.69;4538098;28;20029;-60
2023/06/03 00:30:39;;;;;;;1.23;0.90;;;;;;;22.27;34.57;101150.31;4522378;28;21019;-61
2023/06/03 00:32:50;;;;;;;1.15;0.90;;;;;;;22.17;34.72;101132.41;4554587;28;20029;-61
2023/06/03 00:35:00;;;;;;;0.93;0.75;;;;;;;22.28;34.27;101152.03;4538382;28;20071;-61
2023/06/03 00:37:12;;;;;;;1.00;0.77;;;;;;;22.26;34.67;101151.53;4538096;28;20062;-61
2023/06/03 00:39:22;;;;;;;1.20;0.90;;;;;;;22.25;34.13;101152.75;4536163;28;20065;-60
2023/06/03 00:41:33;;;;;;;1.02;0.93;;;;;;;22.24;34.23;101157.66;4536144;28;20529;-61
2023/06/03 00:43:43;;;;;;;0.95;0.85;;;;;;;22.25;34.23;101150.69;4554897;28;20087;-60
2023/06/03 00:45:54;;;;;;;1.15;0.95;;;;;;;22.25;34.40;101155.63;4555069;28;20508;-61
2023/06/03 00:48:05;;;;;;;1.35;1.20;;;;;;;22.25;34.44;101152.75;4539347;28;20679;-61
2023/06/03 00:50:16;;;;;;;1.45;1.20;;;;;;;22.26;34.26;101155.25;4554740;28;20105;-61
2023/06/03 00:52:26;;;;;;;1.63;1.33;;;;;;;22.10;33.96;101135.06;4526674;28;20480;-61
2023/06/03 00:54:37;;;;;;;1.38;1.10;;;;;;;22.21;33.83;101147.69;4537019;28;20151;-61
2023/06/03 00:56:47;;;;;;;1.00;0.90;;;;;;;22.20;34.07;101142.31;4537389;28;20033;-60
2023/06/03 00:58:58;;;;;;;1.20;1.10;;;;;;;22.18;33.88;101148.44;4554013;28;20027;-61
2023/06/03 01:01:09;;;;;;;1.48;1.05;;;;;;;22.10;33.90;101140.81;4555267;28;20033;-60
2023/06/03 01:03:20;;;;;;;1.10;0.90;;;;;;;22.18;33.75;101153.38;4526173;28;20654;-61
2023/06/03 01:05:30;;;;;;;0.98;0.88;;;;;;;22.20;33.79;101151.78;4536933;28;20111;-60
2023/06/03 01:08:02;;;;;;;0.95;0.80;;;;;;;22.22;33.75;101151.44;4535292;28;20041;-61
2023/06/03 01:10:27;;;;;;;1.00;0.90;;;;;;;22.21;33.48;101149.75;4537808;28;20652;-60
2023/06/03 01:12:47;;;;;;;1.17;0.93;;;;;;;22.21;33.54;101147.69;4537300;28;20634;-60
2023/06/03 01:15:03;;;;;;;1.10;0.80;;;;;;;22.15;33.65;101137.66;4554773;28;20025;-61
2023/06/03 01:17:15;;;;;;;0.83;0.80;;;;;;;22.23;33.28;101158.03;4556023;28;20029;-61
2023/06/03 01:19:49;;;;;;;1.20;0.90;;;;;;;22.21;33.37;101147.69;4552615;28;20876;-61
2023/06/03 01:22:02;;;;;;;0.80;0.80;;;;;;;22.07;33.23;101130.03;4555357;28;20131;-61
2023/06/03 01:24:20;;;;;;;1.13;0.90;;;;;;;22.21;32.91;101147.69;4554981;28;20039;-61
2023/06/03 01:26:34;;;;;;;1.20;0.90;;;;;;;22.21;33.16;101147.69;4536452;28;20537;-60
2023/06/03 01:28:49;;;;;;;0.80;0.80;;;;;;;22.16;32.68;101145.13;4536532;28;20564;-61
2023/06/03 01:31:02;;;;;;;1.77;0.80;;;;;;;22.15;33.05;101149.16;4554965;28;20139;-62
2023/06/03 01:33:13;;;;;;;0.93;0.80;;;;;;;22.06;32.83;101122.63;4525307;28;20029;-61
2023/06/03 01:35:24;;;;;;;0.80;0.80;;;;;;;22.18;32.64;101154.19;4554553;28;20118;-64
2023/06/03 01:37:35;;;;;;;0.60;0.60;;;;;;;22.15;32.95;101142.59;4554530;28;20083;-63
2023/06/03 01:39:46;;;;;;;0.65;0.60;;;;;;;22.18;32.34;101145.56;4554015;28;20040;-60
2023/06/03 01:41:57;;;;;;;0.70;0.70;;;;;;;22.18;32.30;101151.31;4538289;28;20204;-61
2023/06/03 01:44:08;;;;;;;0.82;0.70;;;;;;;22.18;32.34;101159.13;4554507;28;20044;-60
2023/06/03 01:46:19;;;;;;;0.57;0.57;;;;;;;22.05;32.38;101129.59;4553406;28;20090;-60
2023/06/03 01:48:30;;;;;;;0.70;0.70;;;;;;;21.93;31.88;101117.25;4537818;28;20488;-62
2023/06/03 01:50:42;;;;;;;0.50;0.50;;;;;;;22.17;31.64;101152.53;4553462;28;20040;-61
2023/06/03 01:52:52;;;;;;;0.50;0.50;;;;;;;21.99;30.96;101122.38;4535352;28;20596;-60
2023/06/03 01:55:04;;;;;;;0.50;0.50;;;;;;;22.15;31.27;101152.03;4538544;28;20025;-61
2023/06/03 01:57:16;;;;;;;0.50;0.50;;;;;;;22.18;30.64;101150.50;4551784;28;20998;-61
2023/06/03 01:59:27;;;;;;;0.60;0.50;;;;;;;22.14;30.22;101147.50;4542323;28;20595;-60
2023/06/03 02:01:43;;;;;;;1.02;0.55;;;;;;;22.13;30.26;101145.00;4537815;28;20032;-60
2023/06/03 02:03:53;;;;;;;0.50;0.50;;;;;;;22.13;30.32;101145.84;4554172;28;20032;-61
2023/06/03 02:06:04;;;;;;;0.93;0.60;;;;;;;22.17;30.09;101158.28;4553829;28;20457;-60
2023/06/03 02:08:15;;;;;;;0.40;0.40;;;;;;;22.13;29.86;101150.75;4535461;28;20069;-60
2023/06/03 02:10:25;;;;;;;0.88;0.40;;;;;;;22.14;30.06;101152.41;4535929;28;20058;-61
2023/06/03 02:12:36;;;;;;;0.32;0.30;;;;;;;22.08;29.62;101130.88;4537892;28;20032;-61
2023/06/03 02:14:57;;;;;;;0.30;0.30;;;;;;;22.13;29.50;101145.84;4535574;28;20936;-60
2023/06/03 02:17:07;;;;;;;0.82;0.47;;;;;;;22.13;29.42;101145.00;4554362;28;20166;-61
2023/06/03 02:19:24;;;;;;;0.75;0.73;;;;;;;22.14;30.00;101141.75;4536703;28;20489;-60
2023/06/03 02:21:35;;;;;;;0.43;0.43;;;;;;;22.12;29.96;101144.16;4539044;28;20579;-60
2023/06/03 02:23:45;;;;;;;0.57;0.40;;;;;;;22.12;29.90;101144.16;4523529;28;20099;-60
2023/06/03 02:25:57;;;;;;;0.40;0.40;;;;;;;22.14;29.67;101155.28;4537667;28;20068;-61
2023/06/03 02:28:08;;;;;;;0.50;0.50;;;;;;;21.97;29.87;101113.31;4537889;28;20184;-61
2023/06/03 02:30:18;;;;;;;0.50;0.50;;;;;;;22.06;29.45;101127.53;4539085;28;20608;-60
2023/06/03 02:32:29;;;;;;;0.40;0.40;;;;;;;22.12;29.45;101143.31;4555654;28;20145;-61
2023/06/03 02:34:39;;;;;;;0.60;0.50;;;;;;;22.09;29.62;101133.38;4557656;28;20033;-61
2023/06/03 02:36:52;;;;;;;0.47;0.40;;;;;;;22.13;30.17;101154.47;4557770;28;20040;-61
2023/06/03 02:39:02;;;;;;;0.35;0.35;;;;;;;22.10;29.88;101142.84;4557356;28;20075;-61
2023/06/03 02:41:14;;;;;;;0.40;0.40;;;;;;;22.11;29.63;101148.25;4557795;28;20175;-60
2023/06/03 02:43:25;;;;;;;0.38;0.38;;;;;;;22.10;29.85;101140.81;4556289;28;20039;-61
2023/06/03 02:45:35;;;;;;;0.40;0.40;;;;;;;22.12;29.80;101146.19;4555508;28;20065;-60
2023/06/03 02:47:45;;;;;;;0.57;0.50;;;;;;;22.09;30.03;101139.13;4556989;28;20132;-61
2023/06/03 02:49:56;;;;;;;0.30;0.30;;;;;;;22.11;29.96;101147.41;4540089;28;20537;-61
2023/06/03 02:52:07;;;;;;;0.40;0.40;;;;;;;22.11;29.79;101148.25;4538415;28;20037;-61
2023/06/03 02:54:17;;;;;;;0.50;0.50;;;;;;;22.09;29.73;101153.50;4537980;28;20039;-61
2023/06/03 02:56:28;;;;;;;0.47;0.45;;;;;;;21.92;29.81;101119.31;4556945;28;20457;-60
2023/06/03 02:58:41;;;;;;;0.47;0.40;;;;;;;22.09;29.83;101149.78;4557445;28;20037;-61
2023/06/03 03:00:52;;;;;;;0.47;0.40;;;;;;;22.08;29.63;101148.97;4538916;28;20243;-61
2023/06/03 03:03:03;;;;;;;0.50;0.50;;;;;;;22.07;29.93;101144.41;4540123;28;20202;-61
2023/06/03 03:05:16;;;;;;;0.40;0.40;;;;;;;22.06;29.93;101148.50;4556270;28;20060;-61
2023/06/03 03:07:27;;;;;;;0.47;0.47;;;;;;;22.03;29.91;101146.34;4554263;28;20096;-61
2023/06/03 03:09:38;;;;;;;0.57;0.50;;;;;;;22.06;29.52;101150.53;4521467;28;20029;-60
2023/06/03 03:11:50;;;;;;;0.82;0.40;;;;;;;22.01;29.42;101145.03;4537848;28;20048;-62
2023/06/03 03:14:01;;;;;;;0.40;0.40;;;;;;;22.06;29.51;101144.78;4523211;28;20045;-61
2023/06/03 03:16:13;;;;;;;0.95;0.55;;;;;;;22.07;29.29;101147.28;4538823;28;20042;-61
2023/06/03 03:18:26;;;;;;;0.50;0.50;;;;;;;22.06;29.58;101144.78;4537396;28;20029;-62
2023/06/03 03:20:36;;;;;;;0.93;0.68;;;;;;;22.04;28.99;101144.31;4539039;28;20033;-61
2023/06/03 03:22:48;;;;;;;0.40;0.40;;;;;;;21.84;29.58;101111.69;4538014;28;20547;-61
2023/06/03 03:25:03;;;;;;;0.50;0.40;;;;;;;22.05;29.59;101152.59;4539559;28;20033;-61
2023/06/03 03:27:13;;;;;;;0.47;0.47;;;;;;;22.07;29.21;101157.97;4556492;28;20396;-61
2023/06/03 03:29:26;;;;;;;0.88;0.60;;;;;;;22.06;29.52;101156.28;4539027;28;20117;-61
2023/06/03 03:31:40;;;;;;;0.55;0.50;;;;;;;22.04;29.38;101150.88;4538511;28;20156;-61
2023/06/03 03:33:52;;;;;;;1.27;0.43;;;;;;;22.05;29.07;101155.47;4522320;28;20033;-61
2023/06/03 03:36:22;;;;;;;0.40;0.40;;;;;;;22.04;29.02;101158.69;4537985;28;20032;-61
2023/06/03 03:38:35;;;;;;;0.45;0.45;;;;;;;22.02;28.87;101156.16;4521336;28;20037;-61
2023/06/03 03:40:46;;;;;;;0.63;0.50;;;;;;;22.04;29.31;101162.38;4538704;28;20037;-61
2023/06/03 03:42:57;;;;;;;1.05;0.50;;;;;;;22.04;28.94;101167.31;4556741;28;20037;-61
2023/06/03 03:45:17;;;;;;;0.40;0.40;;;;;;;22.03;29.19;101163.59;4539273;28;20033;-61
2023/06/03 03:47:27;;;;;;;0.35;0.35;;;;;;;22.00;28.51;101163.47;4556534;28;20128;-61
2023/06/03 03:49:39;;;;;;;0.50;0.40;;;;;;;22.02;28.68;101166.84;4556050;28;20438;-61
2023/06/03 03:51:55;;;;;;;0.52;0.38;;;;;;;21.98;28.40;101155.22;4537518;28;20037;-61
2023/06/03 03:54:05;;;;;;;0.93;0.38;;;;;;;22.00;28.76;101164.31;4539760;28;20094;-61
2023/06/03 03:56:19;;;;;;;0.30;0.30;;;;;;;22.01;28.56;101165.16;4528265;28;20209;-61
2023/06/03 03:58:40;;;;;;;0.38;0.32;;;;;;;22.01;28.95;101171.75;4538840;28;20032;-61
2023/06/03 04:00:59;;;;;;;0.40;0.40;;;;;;;22.02;29.37;101172.59;4530340;28;20071;-61
2023/06/03 04:03:12;;;;;;;0.40;0.40;;;;;;;21.99;29.38;101164.69;4537472;28;20038;-61
2023/06/03 04:05:22;;;;;;;0.63;0.30;;;;;;;22.01;29.83;101168.88;4536708;28;20033;-61
2023/06/03 04:07:36;;;;;;;0.90;0.40;;;;;;;21.99;29.93;101162.63;4521679;28;20032;-60
2023/06/03 04:09:47;;;;;;;0.30;0.30;;;;;;;21.94;30.08;101160.03;4555024;28;20562;-60
2023/06/03 04:11:57;;;;;;;0.30;0.30;;;;;;;21.98;30.28;101169.59;4538536;28;20041;-59
2023/06/03 04:14:16;;;;;;;0.30;0.30;;;;;;;21.98;30.33;101163.00;4541952;28;20124;-60
2023/06/03 04:16:51;;;;;;;0.38;0.38;;;;;;;21.99;30.41;101168.38;4538790;28;20076;-60
2023/06/03 04:19:06;;;;;;;1.10;0.40;;;;;;;21.77;30.26;101140.19;4536374;28;20091;-60
2023/06/03 04:21:19;;;;;;;0.93;0.30;;;;;;;21.98;29.08;101169.59;4553249;28;20029;-59
2023/06/03 04:23:30;;;;;;;0.52;0.52;;;;;;;21.93;29.34;101169.84;4538187;28;20119;-60
2023/06/03 04:25:43;;;;;;;0.40;0.40;;;;;;;21.92;28.99;101165.31;4554795;28;20114;-60
2023/06/03 04:27:54;;;;;;;0.40;0.38;;;;;;;21.98;29.13;101172.47;4536540;28;20212;-61
2023/06/03 04:30:05;;;;;;;0.45;0.45;;;;;;;21.96;28.91;101166.25;4538238;28;20040;-60
2023/06/03 04:32:16;;;;;;;0.40;0.40;;;;;;;21.93;29.13;101169.84;4554938;28;20122;-59
2023/06/03 04:34:27;;;;;;;0.47;0.47;;;;;;;21.96;29.35;101180.59;4555604;28;20162;-59
2023/06/03 04:36:38;;;;;;;0.55;0.40;;;;;;;21.97;29.74;101188.06;4527556;28;20085;-60
2023/06/03 04:38:51;;;;;;;0.32;0.32;;;;;;;21.89;30.51;101170.94;4537588;28;20031;-60
2023/06/03 04:41:02;;;;;;;0.20;0.20;;;;;;;21.95;30.79;101176.06;4524626;28;20041;-60
2023/06/03 04:43:15;;;;;;;0.40;0.40;;;;;;;21.96;30.74;101186.34;4538585;28;20081;-60
2023/06/03 04:45:27;;;;;;;0.55;0.50;;;;;;;21.95;30.96;101181.81;4526104;28;20712;-60
2023/06/03 04:47:41;;;;;;;0.50;0.40;;;;;;;21.94;30.68;101180.16;4535788;28;20047;-60
2023/06/03 04:49:52;;;;;;;0.68;0.40;;;;;;;21.94;30.59;101188.78;4553762;28;20186;-60
2023/06/03 04:52:03;;;;;;;1.15;0.47;;;;;;;21.95;30.56;101190.44;4538828;28;20091;-60
2023/06/03 04:54:14;;;;;;;0.47;0.40;;;;;;;21.94;30.45;101185.91;4537613;28;20080;-60
2023/06/03 04:56:29;;;;;;;0.40;0.40;;;;;;;21.94;30.35;101183.03;4557103;28;20083;-60
2023/06/03 04:58:41;;;;;;;0.40;0.40;;;;;;;21.90;30.13;101176.31;4538043;28;20041;-60
2023/06/03 05:00:56;;;;;;;0.40;0.40;;;;;;;21.78;29.91;101159.09;4526137;28;20092;-60
2023/06/03 05:03:09;;;;;;;0.95;0.50;;;;;;;21.93;30.06;101187.09;4539225;28;20048;-60
2023/06/03 05:05:28;;;;;;;0.75;0.50;;;;;;;21.93;29.74;101189.97;4538329;28;20081;-60
2023/06/03 05:07:39;;;;;;;0.50;0.40;;;;;;;21.90;30.05;101189.84;4537160;28;20999;-60
2023/06/03 05:09:50;;;;;;;0.40;0.40;;;;;;;21.93;29.84;101189.97;4536588;28;20090;-59
2023/06/03 05:12:01;;;;;;;0.40;0.40;;;;;;;21.89;29.83;101194.78;4538287;28;21328;-60
2023/06/03 05:14:14;;;;;;;0.47;0.35;;;;;;;21.89;29.97;101194.78;4537203;28;20025;-60
2023/06/03 05:16:25;;;;;;;1.02;0.40;;;;;;;21.89;29.98;101191.06;4555287;28;20032;-60
2023/06/03 05:18:35;;;;;;;0.43;0.43;;;;;;;21.92;30.39;101199.78;4553870;28;20087;-60
2023/06/03 05:20:47;;;;;;;0.40;0.40;;;;;;;21.89;30.89;101191.91;4536463;28;20187;-60
2023/06/03 05:22:58;;;;;;;0.30;0.30;;;;;;;21.90;31.04;101196.44;4537455;28;20068;-60
2023/06/03 05:25:09;;;;;;;0.28;0.28;;;;;;;21.92;30.60;101190.31;4536356;28;20072;-60
2023/06/03 05:27:20;;;;;;;0.85;0.40;;;;;;;21.87;30.63;101188.53;4555728;28;20965;-60
2023/06/03 05:29:31;;;;;;;0.70;0.40;;;;;;;21.89;30.30;101183.28;4554523;28;20032;-60
2023/06/03 05:31:41;;;;;;;0.40;0.40;;;;;;;21.88;30.25;101195.94;4538838;28;20575;-60
2023/06/03 05:33:52;;;;;;;0.47;0.32;;;;;;;21.84;29.63;101185.53;4537036;28;20142;-60
2023/06/03 05:36:06;;;;;;;0.47;0.30;;;;;;;21.88;30.13;101195.13;4550555;28;21358;-60
2023/06/03 05:38:17;;;;;;;0.32;0.30;;;;;;;21.87;31.88;101194.28;4553497;28;20044;-60
2023/06/03 05:40:27;;;;;;;0.80;0.30;;;;;;;21.74;34.85;101166.72;4556109;28;20029;-60
2023/06/03 05:42:38;;;;;;;0.40;0.30;;;;;;;21.89;36.12;101203.41;4535006;28;20041;-60
2023/06/03 05:44:49;;;;;;;0.30;0.30;;;;;;;21.86;38.09;101188.91;4538267;28;20021;-60
2023/06/03 05:47:00;;;;;;;0.30;0.30;;;;;;;21.86;39.42;101184.00;4555014;28;20411;-60
2023/06/03 05:49:10;;;;;;;0.30;0.30;;;;;;;21.88;38.36;101195.13;4554559;28;20111;-61
2023/06/03 05:51:21;;;;;;;0.40;0.40;;;;;;;21.86;36.03;101192.63;4521753;28;20443;-60
2023/06/03 05:53:32;;;;;;;0.43;0.30;;;;;;;21.87;34.16;101188.53;4553515;28;20040;-60
2023/06/03 05:55:45;;;;;;;0.63;0.40;;;;;;;21.87;33.19;101182.78;4522633;28;20037;-60
2023/06/03 05:57:56;;;;;;;0.55;0.30;;;;;;;21.88;33.04;101190.19;4554619;28;20020;-61
2023/06/03 06:00:07;;;;;;;0.47;0.40;;;;;;;21.87;33.65;101184.81;4537498;28;20037;-61
2023/06/03 06:02:24;;;;;;;0.40;0.32;;;;;;;21.85;34.39;101182.31;4553361;28;20939;-61
2023/06/03 06:04:34;;;;;;;0.55;0.40;;;;;;;21.86;33.73;101181.13;4554996;28;20045;-60
2023/06/03 06:06:45;;;;;;;0.40;0.40;;;;;;;21.82;33.25;101168.66;4554958;28;20106;-61
2023/06/03 06:08:55;;;;;;;0.63;0.40;;;;;;;21.86;33.35;101181.13;4538842;28;20045;-61
2023/06/03 06:11:06;;;;;;;0.25;0.25;;;;;;;21.84;33.01;101182.69;4525676;28;20081;-60
2023/06/03 06:13:17;;;;;;;0.47;0.20;;;;;;;21.87;32.78;101188.53;4554258;28;20116;-60
2023/06/03 06:15:31;;;;;;;0.65;0.30;;;;;;;21.87;33.01;101187.69;4538148;28;20512;-60
2023/06/03 06:17:43;;;;;;;0.30;0.30;;;;;;;21.88;32.83;101180.75;4535608;28;20609;-60
2023/06/03 06:19:54;;;;;;;0.47;0.47;;;;;;;21.81;33.59;101172.75;4537998;28;20596;-60
2023/06/03 06:22:05;;;;;;;0.30;0.30;;;;;;;21.81;33.28;101178.50;4555602;28;20037;-60
2023/06/03 06:24:16;;;;;;;0.50;0.40;;;;;;;21.85;32.29;101190.94;4554215;28;20032;-60
2023/06/03 06:26:29;;;;;;;0.25;0.25;;;;;;;21.84;32.77;101180.66;4536309;28;20037;-61
2023/06/03 06:28:42;;;;;;;0.60;0.40;;;;;;;21.83;32.56;101186.75;4554601;28;20594;-60
2023/06/03 06:30:55;;;;;;;0.55;0.30;;;;;;;21.87;32.60;101187.69;4535746;28;20115;-61
2023/06/03 06:33:06;;;;;;;0.30;0.30;;;;;;;21.84;32.48;101176.94;4524893;28;20064;-61
2023/06/03 06:35:28;;;;;;;0.73;0.40;;;;;;;21.86;32.26;101192.63;4536729;28;20025;-61
2023/06/03 06:37:38;;;;;;;0.28;0.28;;;;;;;21.85;33.19;101190.13;4554845;28;20510;-60
2023/06/03 06:39:51;;;;;;;0.38;0.22;;;;;;;21.83;32.15;101187.59;4551872;28;20036;-60
2023/06/03 06:42:17;;;;;;;0.43;0.40;;;;;;;21.87;33.26;101199.19;4537534;28;20624;-61
2023/06/03 06:44:43;;;;;;;0.30;0.30;;;;;;;21.86;32.37;101195.50;4556067;28;20048;-61
2023/06/03 06:46:55;;;;;;;0.40;0.40;;;;;;;21.84;32.59;101189.28;4553017;28;20436;-61
2023/06/03 06:49:08;;;;;;;0.35;0.30;;;;;;;21.84;31.42;101189.28;4534895;28;20045;-60
2023/06/03 06:51:19;;;;;;;0.30;0.30;;;;;;;21.83;32.57;101193.34;4553395;28;20045;-60
2023/06/03 06:53:34;;;;;;;0.63;0.30;;;;;;;21.84;33.62;101195.00;4523957;28;20065;-61
2023/06/03 06:55:55;;;;;;;0.30;0.30;;;;;;;21.85;32.24;101199.56;4535112;28;20025;-61
2023/06/03 06:58:35;;;;;;;0.80;0.40;;;;;;;21.85;32.97;101202.44;4553934;28;20045;-66
2023/06/03 07:00:48;;;;;;;0.80;0.40;;;;;;;21.79;31.49;101189.50;4525561;28;20071;-62
2023/06/03 07:02:58;;;;;;;0.77;0.30;;;;;;;21.85;31.61;101201.59;4535725;28;20099;-61
2023/06/03 07:05:09;;;;;;;0.40;0.30;;;;;;;21.82;32.27;101196.56;4554259;28;20060;-62
2023/06/03 07:07:20;;;;;;;0.30;0.30;;;;;;;21.85;32.40;101195.88;4552730;28;20128;-62
2023/06/03 07:09:31;;;;;;;0.38;0.30;;;;;;;21.80;31.82;101188.28;4536292;28;20043;-62
2023/06/03 07:11:46;;;;;;;0.30;0.30;;;;;;;21.83;32.74;101196.22;4540859;28;20033;-62
2023/06/03 07:13:59;;;;;;;0.30;0.30;;;;;;;21.84;32.02;101197.88;4539801;28;20586;-62
2023/06/03 07:16:10;;;;;;;0.70;0.30;;;;;;;21.84;31.97;101194.16;4526895;28;20060;-62
2023/06/03 07:18:21;;;;;;;0.45;0.38;;;;;;;21.83;32.98;101187.59;4536944;28;20029;-62
2023/06/03 07:20:35;;;;;;;0.30;0.20;;;;;;;21.82;33.25;101190.81;4527461;28;20045;-62
2023/06/03 07:22:45;;;;;;;0.30;0.30;;;;;;;21.84;31.77;101199.91;4522696;28;20040;-62
2023/06/03 07:24:56;;;;;;;0.30;0.30;;;;;;;21.82;32.21;101190.81;4555615;28;20044;-60
2023/06/03 07:27:07;;;;;;;0.95;0.43;;;;;;;21.83;32.63;101204.84;4538881;28;20037;-60
2023/06/03 07:29:19;;;;;;;0.32;0.32;;;;;;;21.78;32.30;101196.47;4543907;28;20037;-60
2023/06/03 07:31:35;;;;;;;0.35;0.30;;;;;;;21.83;31.48;101204.84;4539258;28;20094;-62
2023/06/03 07:33:51;;;;;;;1.25;0.30;;;;;;;21.84;31.55;101200.75;4529135;28;20044;-62
2023/06/03 07:36:04;;;;;;;0.45;0.30;;;;;;;21.83;31.67;101198.25;4540587;28;20075;-60
2023/06/03 07:38:37;;;;;;;0.45;0.30;;;;;;;21.85;31.51;101198.75;4537861;28;21295;-62
2023/06/03 07:40:49;;;;;;;0.30;0.30;;;;;;;21.84;30.85;101205.66;4539818;28;21096;-62
2023/06/03 07:43:00;;;;;;;0.63;0.40;;;;;;;21.82;31.40;101203.16;4539408;28;20032;-62
2023/06/03 07:45:14;;;;;;;0.60;0.30;;;;;;;21.79;31.13;101200.16;4555918;28;20376;-61
2023/06/03 07:47:26;;;;;;;0.32;0.30;;;;;;;21.79;30.86;101192.38;4556043;28;20117;-61
2023/06/03 07:49:36;;;;;;;0.30;0.30;;;;;;;21.82;31.12;101202.31;4555875;28;20571;-62
2023/06/03 07:51:48;;;;;;;0.55;0.20;;;;;;;21.83;31.64;101193.34;4556409;28;20036;-61
2023/06/03 07:53:59;;;;;;;0.40;0.40;;;;;;;21.82;30.81;101197.41;4556176;28;20032;-62
2023/06/03 07:56:12;;;;;;;0.30;0.30;;;;;;;21.81;29.98;101189.16;4557068;28;20668;-61
2023/06/03 07:58:25;;;;;;;0.65;0.40;;;;;;;21.79;29.57;101197.28;4556505;28;20029;-62
2023/06/03 08:00:36;;;;;;;0.45;0.30;;;;;;;21.67;29.48;101169.41;4557214;28;20600;-62
2023/06/03 08:02:46;;;;;;;0.55;0.30;;;;;;;21.79;28.63;101195.25;4556176;28;20651;-62
2023/06/03 08:05:00;;;;;;;0.55;0.32;;;;;;;21.78;28.76;101187.84;4538734;28;20061;-61
2023/06/03 08:07:10;;;;;;;0.38;0.30;;;;;;;21.82;28.77;101194.53;4555653;28;20101;-62
2023/06/03 08:09:35;;;;;;;0.20;0.20;;;;;;;21.81;28.55;101195.75;4556654;28;20560;-62
2023/06/03 08:11:45;;;;;;;0.20;0.20;;;;;;;21.81;27.95;101190.00;4556749;28;20085;-61
2023/06/03 08:13:57;;;;;;;1.10;0.40;;;;;;;21.83;28.03;101187.59;4555070;28;20086;-62
2023/06/03 08:16:07;;;;;;;0.22;0.22;;;;;;;21.81;27.80;101190.00;4555868;28;20043;-62
2023/06/03 08:18:45;;;;;;;0.50;0.30;;;;;;;21.82;28.13;101191.66;4555520;28;20079;-62
2023/06/03 08:21:00;;;;;;;0.30;0.30;;;;;;;21.80;28.41;101188.28;4545232;28;20603;-61
2023/06/03 08:23:11;;;;;;;0.20;0.20;;;;;;;21.81;28.26;101192.03;4538258;28;20568;-61
2023/06/03 08:25:22;;;;;;;0.30;0.30;;;;;;;21.81;28.24;101186.28;4556431;28;20139;-62
2023/06/03 08:27:33;;;;;;;0.35;0.30;;;;;;;21.81;27.74;101189.16;4555250;28;20802;-61
2023/06/03 08:29:45;;;;;;;0.32;0.30;;;;;;;21.81;28.18;101189.16;4554648;28;20032;-62
2023/06/03 08:31:55;;;;;;;0.35;0.25;;;;;;;21.81;27.74;101184.25;4555587;28;20041;-62
2023/06/03 08:34:06;;;;;;;0.20;0.20;;;;;;;21.82;27.46;101188.78;4554593;28;20033;-62
2023/06/03 08:36:18;;;;;;;0.30;0.30;;;;;;;21.81;27.94;101183.41;4540105;28;20505;-62
2023/06/03 08:38:28;;;;;;;0.30;0.30;;;;;;;21.81;28.63;101180.53;4555494;28;20031;-62
2023/06/03 08:40:46;;;;;;;0.45;0.30;;;;;;;21.83;28.01;101181.00;4555029;28;20547;-62
2023/06/03 08:43:02;;;;;;;0.50;0.30;;;;;;;21.82;27.80;101182.19;4555444;28;20028;-62
2023/06/03 08:45:15;;;;;;;0.30;0.30;;;;;;;21.79;27.52;101174.28;4555341;28;20679;-61
2023/06/03 08:47:33;;;;;;;0.30;0.30;;;;;;;21.81;27.80;101183.41;4555596;28;20626;-62
2023/06/03 08:49:57;;;;;;;0.20;0.20;;;;;;;21.82;28.09;101183.03;4554693;28;20040;-62
2023/06/03 08:52:10;;;;;;;0.40;0.40;;;;;;;21.77;28.12;101177.53;4554164;28;20028;-62
2023/06/03 08:54:23;;;;;;;0.30;0.30;;;;;;;21.82;28.17;101180.16;4555853;28;20036;-62
2023/06/03 08:56:37;;;;;;;0.35;0.30;;;;;;;21.83;28.02;101181.00;4556159;28;20028;-62
2023/06/03 08:59:00;;;;;;;0.30;0.30;;;;;;;21.81;27.58;101180.53;4555125;28;20747;-62
2023/06/03 09:01:11;;;;;;;0.30;0.30;;;;;;;21.81;27.35;101178.50;4555557;28;20036;-62
2023/06/03 09:03:22;;;;;;;0.30;0.30;;;;;;;21.82;28.09;101180.16;4556023;28;20043;-62
2023/06/03 09:05:33;;;;;;;0.70;0.30;;;;;;;21.84;28.03;101179.81;4554477;28;20040;-62
2023/06/03 09:07:45;;;;;;;0.47;0.40;;;;;;;21.81;27.46;101172.75;4553248;28;20040;-62
2023/06/03 09:09:57;;;;;;;1.08;0.38;;;;;;;21.78;26.74;101166.88;4556260;28;20206;-62
2023/06/03 09:12:08;;;;;;;0.43;0.40;;;;;;;21.83;28.19;101163.75;4556102;28;20048;-62
2023/06/03 09:14:20;;;;;;;0.40;0.40;;;;;;;21.82;27.33;101174.41;4556635;28;20028;-62
2023/06/03 09:16:34;;;;;;;0.38;0.30;;;;;;;21.76;28.23;101158.63;4538762;28;20059;-62
2023/06/03 09:18:45;;;;;;;0.30;0.30;;;;;;;21.76;28.29;101158.63;4555438;28;20024;-62
2023/06/03 09:20:56;;;;;;;0.40;0.40;;;;;;;21.81;28.58;101169.88;4525628;28;20072;-62
2023/06/03 09:23:07;;;;;;;0.45;0.40;;;;;;;21.82;28.72;101160.03;4537707;28;20592;-62
2023/06/03 09:25:18;;;;;;;0.65;0.20;;;;;;;21.78;28.79;101161.97;4536436;28;20679;-62
2023/06/03 09:27:28;;;;;;;0.30;0.30;;;;;;;21.82;28.67;101162.91;4537237;28;20061;-62
2023/06/03 09:29:41;;;;;;;0.75;0.40;;;;;;;21.83;29.04;101175.25;4553647;28;20098;-62
2023/06/03 09:31:52;;;;;;;0.30;0.30;;;;;;;21.80;29.25;101162.44;4536726;28;20045;-62
2023/06/03 09:34:03;;;;;;;1.10;0.40;;;;;;;21.82;29.47;101160.03;4541311;28;20095;-62
2023/06/03 09:36:15;;;;;;;0.32;0.30;;;;;;;21.80;29.24;101159.56;4555314;28;20044;-62
2023/06/03 09:38:44;;;;;;;0.30;0.30;;;;;;;21.83;28.80;101155.16;4538472;28;20020;-62
2023/06/03 09:40:54;;;;;;;0.68;0.30;;;;;;;21.80;29.04;101155.88;4553290;28;20620;-62
2023/06/03 09:43:11;;;;;;;0.52;0.30;;;;;;;21.81;28.90;101160.41;4555026;28;20051;-62
2023/06/03 09:45:26;;;;;;;;;;;;;;;21.84;29.49;101169.16;4554388;28;20052;-62
2023/06/03 09:47:39;;;;;;;0.30;0.30;;;;;;;21.84;29.89;101159.69;4553918;28;20058;-61
2023/06/03 09:50:08;;;;;;;0.35;0.30;;;;;;;21.81;30.07;101152.63;4555204;28;20595;-62
2023/06/03 09:52:31;;;;;;;0.20;0.20;;;;;;;21.85;29.73;101167.94;4538219;28;20045;-62
2023/06/03 09:54:41;;;;;;;0.20;0.20;;;;;;;21.82;30.07;101153.44;4555820;28;20810;-62
2023/06/03 09:56:52;;;;;;;1.05;0.30;;;;;;;21.86;29.31;101160.16;4554703;28;20040;-62
2023/06/03 09:59:13;;;;;;;0.32;0.30;;;;;;;21.86;29.88;101158.13;4556570;28;20025;-62
2023/06/03 10:01:31;;;;;;;0.30;0.30;;;;;;;21.85;29.54;101156.44;4554207;28;20041;-62
2023/06/03 10:03:56;;;;;;;0.30;0.30;;;;;;;21.87;29.44;101158.94;4553911;28;20055;-62
2023/06/03 10:06:16;;;;;;;0.30;0.30;;;;;;;21.84;28.57;101156.81;4555856;28;20606;-62
2023/06/03 10:08:30;;;;;;;1.35;0.40;;;;;;;21.85;28.14;101156.44;4554096;28;20036;-60
2023/06/03 10:10:55;;;;;;;0.30;0.30;;;;;;;21.87;28.20;101148.31;4554354;28;20067;-60
2023/06/03 10:13:21;;;;;;;0.40;0.40;;;;;;;21.86;27.93;101146.66;4554189;28;21069;-61
2023/06/03 10:15:39;;;;;;;0.43;0.30;;;;;;;21.87;28.07;101154.06;4554144;28;20039;-61
2023/06/03 10:17:50;;;;;;;0.20;0.20;;;;;;;21.85;27.70;101149.88;4536799;28;20036;-61